Terminal Aerodrome Forecast
Issued by NWS Twin Cities, MN

Home | Current Version | Previous Version | Text Only | Print | Product List | Glossary Off
Versions: 1 2 3 4 5 6 7 8 9 10 11 12 13 14 15 16

000
FTUS43 KMPX 251700
TAFEAU
TAF
KEAU 251720Z 2518/2618 20008KT P6SM BKN015 OVC040
     FM252000 20008KT P6SM BKN025 BKN040
     FM252200 18005KT P6SM SCT025 BKN050
     FM260800 19004KT 4SM BR SCT040
     FM261000 VRB03KT 1SM BR SCT007
     FM261400 31005KT P6SM SCT040 SCT120=

USA.gov is the U.S. government's official web portal to all federal, state and local government web resources and services.